createdAt,value
2019-03-25T00:49:29.395Z,101029.78
2019-03-25T00:52:00.493Z,101022.98
2019-03-25T00:54:31.742Z,101027.88
2019-03-25T00:57:03.748Z,101025.97
2019-03-25T00:59:35.143Z,101011.80
2019-03-25T01:02:06.673Z,101016.45
2019-03-25T01:04:37.815Z,101019.16
2019-03-25T01:07:08.899Z,101015.80
2019-03-25T01:09:39.637Z,101006.68
2019-03-25T01:12:10.695Z,101010.91
2019-03-25T01:14:41.383Z,101004.61
2019-03-25T01:17:12.832Z,101005.50
2019-03-25T01:19:43.668Z,100997.16
2019-03-25T01:22:14.345Z,100995.36
2019-03-25T01:24:45.125Z,100988.93
2019-03-25T01:27:16.203Z,100982.09
2019-03-25T01:29:47.124Z,100977.50
2019-03-25T01:32:17.845Z,100978.92
2019-03-25T01:34:48.969Z,100975.69
2019-03-25T01:37:20.011Z,100972.23
2019-03-25T01:39:50.749Z,100971.44
2019-03-25T01:42:21.820Z,100968.36
2019-03-25T01:44:53.102Z,100970.28
2019-03-25T01:47:24.150Z,100962.20
2019-03-25T01:49:56.297Z,100961.28
2019-03-25T01:52:27.754Z,100955.01
2019-03-25T01:54:59.076Z,100951.91
2019-03-25T01:57:30.396Z,100945.61
2019-03-25T02:00:01.474Z,100935.57
2019-03-25T02:02:32.501Z,100932.37
2019-03-25T02:05:03.999Z,100930.30
2019-03-25T02:07:35.285Z,100927.36
2019-03-25T02:10:07.800Z,100925.30
2019-03-25T02:12:39.303Z,100919.78
2019-03-25T02:15:10.370Z,100918.75
2019-03-25T02:17:41.275Z,100919.38
2019-03-25T02:20:11.772Z,100915.25
2019-03-25T02:22:43.268Z,100914.50
2019-03-25T02:25:24.930Z,100909.86
2019-03-25T02:27:47.265Z,100908.47
2019-03-25T02:30:18.315Z,100904.36
2019-03-25T02:32:49.084Z,100894.84
2019-03-25T02:35:19.926Z,100896.50
2019-03-25T02:37:50.684Z,100891.49
2019-03-25T02:40:21.632Z,100886.59
2019-03-25T02:42:52.708Z,100880.45
2019-03-25T02:45:23.470Z,100879.44
2019-03-25T02:47:54.151Z,100875.83
2019-03-25T02:50:24.821Z,100865.80
2019-03-25T02:52:55.566Z,100865.02
2019-03-25T02:55:40.809Z,100865.69
2019-03-25T02:57:59.325Z,100860.14
2019-03-25T03:00:33.701Z,100854.37
2019-03-25T03:03:05.912Z,100857.71
2019-03-25T03:05:37.927Z,100856.56
2019-03-25T03:08:08.651Z,100854.00
2019-03-25T03:10:39.565Z,100844.86
2019-03-25T03:13:10.571Z,100848.60
2019-03-25T03:15:41.418Z,100839.98
2019-03-25T03:18:12.147Z,100836.55
2019-03-25T03:20:42.887Z,100829.08
2019-03-25T03:23:13.887Z,100822.92
2019-03-25T03:25:56.266Z,100819.44
2019-03-25T03:28:17.337Z,100814.84
2019-03-25T03:30:49.547Z,100808.16
2019-03-25T03:33:20.665Z,100805.72
2019-03-25T03:35:51.760Z,100802.77
2019-03-25T03:38:22.920Z,100808.42
2019-03-25T03:40:55.111Z,100799.16
2019-03-25T03:43:26.336Z,100795.70
2019-03-25T03:45:57.302Z,100797.50
2019-03-25T03:48:27.853Z,100792.87
2019-03-25T03:50:59.229Z,100789.00
2019-03-25T03:53:30.214Z,100787.73
2019-03-25T03:56:13.076Z,100783.34
2019-03-25T03:58:34.878Z,100775.41
2019-03-25T04:01:05.578Z,100770.77
2019-03-25T04:03:36.692Z,100771.30
2019-03-25T04:06:08.066Z,100772.19
2019-03-25T04:08:39.152Z,100765.25
2019-03-25T04:11:10.193Z,100766.53
2019-03-25T04:13:41.334Z,100768.73
2019-03-25T04:16:12.733Z,100758.98
2019-03-25T04:18:43.619Z,100767.06
2019-03-25T04:21:14.803Z,100764.61
2019-03-25T04:23:46.530Z,100765.41
2019-03-25T04:26:28.347Z,100764.62
2019-03-25T04:28:50.279Z,100760.00
2019-03-25T04:31:21.369Z,100748.59
2019-03-25T04:33:52.383Z,100751.92
2019-03-25T04:36:23.420Z,100756.50
2019-03-25T04:38:54.486Z,100751.39
2019-03-25T04:41:25.393Z,100745.85
2019-03-25T04:43:56.481Z,100751.03
2019-03-25T04:46:27.432Z,100738.33
2019-03-25T04:48:58.600Z,100736.78
2019-03-25T04:51:29.680Z,100740.38
2019-03-25T04:54:00.604Z,100721.87
2019-03-25T04:56:39.532Z,100729.30
2019-03-25T04:59:05.478Z,100706.88
2019-03-25T05:01:36.916Z,100725.23
2019-03-25T05:04:09.062Z,100732.39
2019-03-25T05:06:41.073Z,100725.34
2019-03-25T05:09:12.380Z,100724.44
2019-03-25T05:11:43.271Z,100720.99
2019-03-25T05:14:14.443Z,100715.73
2019-03-25T05:16:45.577Z,100703.90
2019-03-25T05:19:16.601Z,100705.57
2019-03-25T05:21:48.218Z,100701.87
2019-03-25T05:24:19.312Z,100699.80
2019-03-25T05:26:51.420Z,100691.20
2019-03-25T05:29:22.657Z,100688.61
2019-03-25T05:31:53.533Z,100681.56
2019-03-25T05:34:24.818Z,100666.23
2019-03-25T05:36:55.824Z,100645.83
2019-03-25T05:39:26.859Z,100645.83
2019-03-25T05:41:57.766Z,100663.75
2019-03-25T05:44:28.906Z,100663.75
2019-03-25T05:47:00.226Z,100666.17
2019-03-25T05:49:31.003Z,100666.39
2019-03-25T05:52:02.552Z,100665.70
2019-03-25T05:54:33.726Z,100656.50
2019-03-25T05:57:04.807Z,100655.16
2019-03-25T05:59:36.006Z,100643.67
2019-03-25T06:02:06.969Z,100642.70
2019-03-25T06:04:37.731Z,100637.47
2019-03-25T06:07:08.731Z,100640.56
2019-03-25T06:09:40.020Z,100633.13
2019-03-25T06:12:10.922Z,100629.41
2019-03-25T06:14:43.353Z,100627.96
2019-03-25T06:17:14.154Z,100626.44
2019-03-25T06:19:44.819Z,100627.31
2019-03-25T06:22:16.786Z,100617.06
2019-03-25T06:24:48.135Z,100614.50
2019-03-25T06:27:19.302Z,100618.64
2019-03-25T06:29:50.532Z,100608.30
2019-03-25T06:32:21.659Z,100608.16
2019-03-25T06:34:52.541Z,100616.34
2019-03-25T06:37:23.859Z,100616.56
2019-03-25T06:39:55.052Z,100609.94
2019-03-25T06:42:26.017Z,100615.98
2019-03-25T06:44:56.976Z,100600.33
2019-03-25T06:47:27.954Z,100603.29
2019-03-25T06:49:59.027Z,100604.48
2019-03-25T06:52:30.176Z,100602.43
2019-03-25T06:55:01.125Z,100599.55
2019-03-25T06:57:33.209Z,100592.91
2019-03-25T07:00:07.732Z,100589.53
2019-03-25T07:02:39.329Z,100590.48
2019-03-25T07:05:10.672Z,100587.19
2019-03-25T07:07:41.758Z,100585.22
2019-03-25T07:10:12.849Z,100584.52
2019-03-25T07:12:44.601Z,100581.84
2019-03-25T07:15:18.852Z,100580.58
2019-03-25T07:17:50.520Z,100585.95
2019-03-25T07:20:25.535Z,100600.95
2019-03-25T07:22:56.667Z,100597.40
2019-03-25T07:25:27.638Z,100598.90
2019-03-25T07:27:58.807Z,100591.67
2019-03-25T07:30:29.457Z,100600.33
2019-03-25T07:33:00.856Z,100584.25
2019-03-25T07:35:31.680Z,100586.95
2019-03-25T07:38:02.985Z,100580.20
2019-03-25T07:40:34.341Z,100583.60
2019-03-25T07:43:05.381Z,100584.91
2019-03-25T07:45:36.560Z,100578.25
2019-03-25T07:48:07.821Z,100576.06
2019-03-25T07:50:38.859Z,100569.81
2019-03-25T07:53:09.819Z,100562.44
2019-03-25T07:55:41.424Z,100560.17
2019-03-25T07:58:12.433Z,100558.47
2019-03-25T08:00:43.938Z,100559.46
2019-03-25T08:03:15.501Z,100554.19
2019-03-25T08:05:47.398Z,100558.05
2019-03-25T08:08:18.481Z,100556.53
2019-03-25T08:10:50.392Z,100547.79
2019-03-25T08:13:21.488Z,100547.16
2019-03-25T08:15:52.939Z,100544.43
2019-03-25T08:18:23.922Z,100545.86
2019-03-25T08:20:54.858Z,100542.27
2019-03-25T08:23:25.559Z,100537.50
2019-03-25T08:25:57.319Z,100540.14
2019-03-25T08:28:28.517Z,100530.09
2019-03-25T08:31:00.398Z,100528.45
2019-03-25T08:33:31.478Z,100525.50
2019-03-25T08:36:03.621Z,100523.91
2019-03-25T08:38:34.517Z,100528.31
2019-03-25T08:41:06.438Z,100524.78
2019-03-25T08:43:37.601Z,100522.98
2019-03-25T08:46:08.678Z,100527.56
2019-03-25T08:48:39.759Z,100515.31
2019-03-25T08:51:11.197Z,100520.50
2019-03-25T08:53:42.055Z,100526.59
2019-03-25T08:56:13.679Z,100530.08
2019-03-25T08:58:45.518Z,100529.45
2019-03-25T09:01:16.398Z,100517.78
2019-03-25T09:03:49.016Z,100516.37
2019-03-25T09:06:23.238Z,100512.02
2019-03-25T09:08:54.397Z,100518.30
2019-03-25T09:11:25.806Z,100525.62
2019-03-25T09:13:57.356Z,100520.39
2019-03-25T09:16:29.010Z,100518.84
2019-03-25T09:19:00.585Z,100514.91
2019-03-25T09:21:31.720Z,100505.73
2019-03-25T09:24:02.355Z,100502.52
2019-03-25T09:26:33.687Z,100505.59
2019-03-25T09:29:04.548Z,100495.05
2019-03-25T09:31:37.035Z,100491.58
2019-03-25T09:34:09.308Z,100486.63
2019-03-25T09:36:40.725Z,100489.06
2019-03-25T09:39:11.457Z,100488.09
2019-03-25T09:41:43.831Z,100485.77
2019-03-25T09:44:15.656Z,100490.69
2019-03-25T09:46:47.215Z,100491.20
2019-03-25T09:49:19.436Z,100477.32
2019-03-25T09:51:52.897Z,100485.69
2019-03-25T09:54:24.030Z,100488.70
2019-03-25T09:56:55.841Z,100481.28
2019-03-25T09:59:27.267Z,100487.72
2019-03-25T10:01:58.449Z,100483.34
2019-03-25T10:04:29.658Z,100490.28
2019-03-25T10:07:02.127Z,100483.66
2019-03-25T10:09:34.769Z,100483.97
2019-03-25T10:12:06.138Z,100477.71
2019-03-25T10:14:38.417Z,100481.83
2019-03-25T10:17:09.147Z,100467.16
2019-03-25T10:19:40.096Z,100469.69
2019-03-25T10:22:11.116Z,100475.34
2019-03-25T10:24:42.157Z,100472.36
2019-03-25T10:27:12.631Z,100479.20
2019-03-25T10:29:43.753Z,100467.71
2019-03-25T10:32:14.709Z,100469.39
2019-03-25T10:34:45.887Z,100470.83
2019-03-25T10:37:17.080Z,100457.77
2019-03-25T10:39:47.691Z,100463.80
2019-03-25T10:42:19.287Z,100464.22
2019-03-25T10:44:51.153Z,100458.78
2019-03-25T10:47:21.789Z,100461.88
2019-03-25T10:49:52.445Z,100465.47
2019-03-25T10:52:23.839Z,100466.16
2019-03-25T10:57:26.304Z,100477.13
2019-03-25T10:59:58.666Z,100478.86
2019-03-25T11:02:30.071Z,100474.13
2019-03-25T11:05:01.549Z,100479.80
2019-03-25T11:07:33.109Z,100476.41
2019-03-25T11:10:07.251Z,100484.04
2019-03-25T11:12:38.761Z,100487.69
2019-03-25T11:15:10.169Z,100486.45
2019-03-25T11:17:41.128Z,100488.13
2019-03-25T11:20:14.347Z,100487.03
2019-03-25T11:22:46.109Z,100496.94
2019-03-25T11:25:17.736Z,100493.03
2019-03-25T11:27:54.372Z,100500.94
2019-03-25T11:30:25.586Z,100505.39
2019-03-25T11:32:57.166Z,100518.29
2019-03-25T11:35:28.210Z,100514.05
2019-03-25T11:37:59.788Z,100520.56
2019-03-25T11:40:31.789Z,100523.32
2019-03-25T11:43:02.550Z,100520.36
2019-03-25T11:45:34.691Z,100527.88
2019-03-25T11:48:06.549Z,100523.64
2019-03-25T11:50:37.673Z,100523.86
2019-03-25T11:53:08.792Z,100527.99
2019-03-25T11:55:39.495Z,100538.85
2019-03-25T11:58:11.209Z,100542.75
2019-03-25T12:00:42.842Z,100553.22
2019-03-25T12:03:14.074Z,100556.37
2019-03-25T12:05:44.709Z,100561.50
2019-03-25T12:08:16.203Z,100560.31
2019-03-25T12:10:46.714Z,100570.50
2019-03-25T12:13:17.523Z,100576.10
2019-03-25T12:15:48.650Z,100581.02
2019-03-25T12:18:19.193Z,100580.56
2019-03-25T12:20:50.575Z,100576.69
2019-03-25T12:23:26.560Z,100577.58
2019-03-25T12:25:57.909Z,100580.10
2019-03-25T12:28:28.731Z,100583.41
2019-03-25T12:30:59.211Z,100579.61
2019-03-25T12:33:29.652Z,100576.56
2019-03-25T12:36:00.178Z,100579.95
2019-03-25T12:38:30.677Z,100578.56
2019-03-25T12:41:01.487Z,100576.87
2019-03-25T12:43:31.845Z,100582.98
2019-03-25T12:46:04.620Z,100581.67
2019-03-25T12:48:35.094Z,100581.70
2019-03-25T12:51:06.034Z,100583.84
2019-03-25T12:53:36.725Z,100590.36
2019-03-25T12:56:07.263Z,100592.48
2019-03-25T12:58:38.588Z,100600.13
2019-03-25T13:01:10.063Z,100603.56
2019-03-25T13:03:40.887Z,100595.03
2019-03-25T13:06:11.664Z,100598.31
2019-03-25T13:08:42.139Z,100599.41
2019-03-25T13:11:12.550Z,100602.86
2019-03-25T13:13:42.930Z,100604.48
2019-03-25T13:16:13.397Z,100609.86
2019-03-25T13:18:44.029Z,100613.69
2019-03-25T13:21:14.497Z,100610.47
2019-03-25T13:23:44.956Z,100611.69
2019-03-25T13:26:15.365Z,100612.80
2019-03-25T13:28:45.837Z,100615.36
2019-03-25T13:31:16.379Z,100612.78
2019-03-25T13:33:47.054Z,100618.06
2019-03-25T13:36:17.669Z,100624.48
2019-03-25T13:38:48.093Z,100625.00
2019-03-25T13:41:18.490Z,100625.41
2019-03-25T13:43:58.565Z,100628.08
2019-03-25T13:46:44.517Z,100622.07
2019-03-25T13:49:17.434Z,100625.09
2019-03-25T13:51:48.069Z,100633.23
2019-03-25T13:54:18.485Z,100636.09
2019-03-25T13:56:48.935Z,100640.03
2019-03-25T13:59:20.229Z,100642.91
2019-03-25T14:01:52.276Z,100634.31
2019-03-25T14:04:23.591Z,100646.84
2019-03-25T14:06:55.130Z,100651.61
2019-03-25T14:09:26.530Z,100648.23
2019-03-25T14:11:57.790Z,100647.19
2019-03-25T14:14:28.485Z,100644.42
2019-03-25T14:17:00.249Z,100651.70
2019-03-25T14:19:31.879Z,100647.34
2019-03-25T14:22:03.008Z,100644.58
2019-03-25T14:24:34.981Z,100647.18
2019-03-25T14:27:05.635Z,100653.96
2019-03-25T14:29:37.333Z,100662.11
2019-03-25T14:32:07.864Z,100654.47
2019-03-25T14:34:44.914Z,100662.05
2019-03-25T14:37:14.716Z,100656.59
2019-03-25T14:39:46.191Z,100661.50
2019-03-25T14:42:20.316Z,100658.52
2019-03-25T14:44:51.069Z,100656.23
2019-03-25T14:47:26.749Z,100662.10
2019-03-25T14:49:58.535Z,100651.90
2019-03-25T14:52:29.581Z,100659.86
2019-03-25T14:55:00.968Z,100657.95
2019-03-25T14:57:31.925Z,100654.02
2019-03-25T15:00:07.905Z,100663.75
2019-03-25T15:02:38.690Z,100660.48
2019-03-25T15:05:09.730Z,100663.43
2019-03-25T15:07:42.221Z,100681.16
2019-03-25T15:10:13.340Z,100692.60
2019-03-25T15:12:45.551Z,100687.86
2019-03-25T15:15:16.869Z,100707.63
2019-03-25T15:17:47.654Z,100708.55
2019-03-25T15:20:18.104Z,100707.43
2019-03-25T15:22:51.444Z,100708.77
2019-03-25T15:25:23.593Z,100696.84
2019-03-25T15:27:54.632Z,100682.66
2019-03-25T15:30:35.417Z,100697.52
2019-03-25T15:33:00.057Z,100704.19
2019-03-25T15:35:32.951Z,100708.52
2019-03-25T15:38:05.194Z,100702.78
2019-03-25T15:40:36.825Z,100708.22
2019-03-25T15:43:08.029Z,100718.64
2019-03-25T15:45:38.871Z,100721.00
2019-03-25T15:48:10.710Z,100730.70
2019-03-25T15:50:42.261Z,100723.73
2019-03-25T15:53:13.752Z,100728.53
2019-03-25T15:55:44.540Z,100731.42
2019-03-25T15:58:25.633Z,100739.92
2019-03-25T16:00:49.121Z,100740.91
2019-03-25T16:03:19.999Z,100735.96
2019-03-25T16:05:51.360Z,100745.84
2019-03-25T16:08:22.166Z,100745.93
2019-03-25T16:10:53.676Z,100751.09
2019-03-25T16:13:24.820Z,100753.22
2019-03-25T16:15:56.252Z,100757.27
2019-03-25T16:18:30.830Z,100760.17
2019-03-25T16:21:02.413Z,100766.13
2019-03-25T16:23:33.791Z,100770.49
2019-03-25T16:26:08.568Z,100771.69
2019-03-25T16:28:40.061Z,100774.27
2019-03-25T16:31:10.845Z,100780.85
2019-03-25T16:33:41.243Z,100782.23
2019-03-25T16:36:15.315Z,100779.48
2019-03-25T16:38:45.939Z,100781.97
2019-03-25T16:41:17.471Z,100777.88
2019-03-25T16:43:48.087Z,100782.72
2019-03-25T16:46:19.112Z,100784.72
2019-03-25T16:48:50.229Z,100785.30
2019-03-25T16:51:21.029Z,100792.91
2019-03-25T16:53:51.722Z,100801.31
2019-03-25T16:56:27.956Z,100811.77
2019-03-25T16:59:05.841Z,100807.41
2019-03-25T17:01:38.651Z,100807.72
2019-03-25T17:04:10.111Z,100818.89
2019-03-25T17:06:40.959Z,100825.96
2019-03-25T17:09:12.033Z,100829.88
2019-03-25T17:11:44.212Z,100835.71
2019-03-25T17:14:15.409Z,100840.20
2019-03-25T17:16:46.597Z,100842.56
2019-03-25T17:19:19.110Z,100841.27
2019-03-25T17:21:58.090Z,100847.89
2019-03-25T17:24:32.368Z,100858.84
2019-03-25T17:27:14.871Z,100860.63
2019-03-25T17:29:51.271Z,100866.28
2019-03-25T17:32:22.150Z,100870.32
2019-03-25T17:34:56.533Z,100873.96
2019-03-25T17:37:27.491Z,100881.44
2019-03-25T17:39:59.023Z,100887.76
2019-03-25T17:42:31.389Z,100894.34
2019-03-25T17:45:02.275Z,100896.25
2019-03-25T17:47:34.697Z,100903.30
2019-03-25T17:50:09.010Z,100909.66
2019-03-25T17:52:40.492Z,100913.75
2019-03-25T17:55:11.672Z,100914.91
2019-03-25T17:57:42.910Z,100922.16
2019-03-25T18:00:15.621Z,100927.45
2019-03-25T18:02:48.516Z,100925.86
2019-03-25T18:05:20.240Z,100927.95
2019-03-25T18:07:51.599Z,100931.16
2019-03-25T18:10:23.270Z,100942.37
2019-03-25T18:12:54.058Z,100945.45
2019-03-25T18:15:25.358Z,100947.80
2019-03-25T18:17:56.853Z,100957.46
2019-03-25T18:20:36.532Z,100964.14
2019-03-25T18:23:07.198Z,100978.73
2019-03-25T18:25:38.106Z,100982.21
2019-03-25T18:28:08.618Z,100987.87
2019-03-25T18:30:39.024Z,100995.91
2019-03-25T18:33:09.550Z,100995.78
2019-03-25T18:35:40.753Z,100996.01
2019-03-25T18:38:12.611Z,101002.56
2019-03-25T18:40:44.244Z,101007.86
2019-03-25T18:43:16.146Z,101004.78
2019-03-25T18:45:47.534Z,101005.14
2019-03-25T18:48:18.320Z,101008.48
2019-03-25T18:50:49.402Z,101018.18
2019-03-25T18:53:21.187Z,101024.38
2019-03-25T18:55:52.242Z,101018.18
2019-03-25T18:58:23.851Z,101023.84
2019-03-25T19:00:56.630Z,101031.98
2019-03-25T19:03:27.641Z,101038.33
2019-03-25T19:06:00.297Z,101041.83
2019-03-25T19:08:31.941Z,101050.23
2019-03-25T19:11:04.266Z,101055.45
2019-03-25T19:13:35.709Z,101062.56
2019-03-25T19:16:07.086Z,101061.19
2019-03-25T19:18:38.176Z,101068.94
2019-03-25T19:21:08.829Z,101071.41
2019-03-25T19:23:40.705Z,101073.86
2019-03-25T19:26:12.332Z,101079.41
2019-03-25T19:28:45.791Z,101080.46
2019-03-25T19:31:23.035Z,101081.99
2019-03-25T19:33:53.715Z,101085.63
2019-03-25T19:36:24.166Z,101094.73
2019-03-25T19:38:54.584Z,101105.27
2019-03-25T19:41:32.222Z,101110.18
2019-03-25T19:43:57.535Z,101122.69
2019-03-25T19:46:28.004Z,101125.27
2019-03-25T19:48:58.452Z,101129.00
2019-03-25T19:51:28.843Z,101135.99
2019-03-25T19:53:59.309Z,101136.78
2019-03-25T19:56:50.850Z,101133.70
2019-03-25T19:59:33.687Z,101148.00
2019-03-25T20:02:05.671Z,101149.84
2019-03-25T20:04:37.509Z,101157.72
2019-03-25T20:07:10.193Z,101157.88
2019-03-25T20:09:42.606Z,101168.58
2019-03-25T20:12:14.516Z,101168.34
2019-03-25T20:14:46.771Z,101181.63
2019-03-25T20:17:20.474Z,101192.47
2019-03-25T20:19:53.888Z,101193.37
2019-03-25T20:22:27.415Z,101198.38
2019-03-25T20:24:59.833Z,101199.81
2019-03-25T20:27:33.234Z,101208.84
2019-03-25T20:30:10.238Z,101210.66
2019-03-25T20:32:44.128Z,101214.17
2019-03-25T20:35:17.960Z,101213.63
2019-03-25T20:37:51.001Z,101217.22
2019-03-25T20:40:32.936Z,101222.38
2019-03-25T20:43:06.015Z,101223.27
2019-03-25T20:45:38.159Z,101220.08
2019-03-25T20:48:10.187Z,101217.76
2019-03-25T20:50:41.936Z,101225.34
2019-03-25T20:53:14.190Z,101233.48
2019-03-25T20:55:47.225Z,101233.37
2019-03-25T20:58:19.968Z,101239.67
2019-03-25T21:00:54.727Z,101243.42
2019-03-25T21:03:26.622Z,101245.49
2019-03-25T21:05:58.262Z,101250.50
2019-03-25T21:08:30.579Z,101257.48
2019-03-25T21:11:04.442Z,101252.86
2019-03-25T21:13:36.428Z,101266.36
2019-03-25T21:16:08.159Z,101264.05
2019-03-25T21:18:42.744Z,101260.20
2019-03-25T21:21:22.243Z,101266.25
2019-03-25T21:23:58.037Z,101263.53
2019-03-25T21:26:45.531Z,101271.39
2019-03-25T21:29:22.892Z,101282.86
2019-03-25T21:31:55.749Z,101278.38
2019-03-25T21:34:27.931Z,101285.46
2019-03-25T21:36:58.428Z,101278.73
2019-03-25T21:39:29.531Z,101284.04
2019-03-25T21:42:00.546Z,101283.89
2019-03-25T21:44:31.752Z,101291.25
2019-03-25T21:47:04.264Z,101289.72
2019-03-25T21:49:35.496Z,101286.09
2019-03-25T21:52:06.357Z,101296.78
2019-03-25T21:54:37.770Z,101295.63
2019-03-25T21:57:09.136Z,101299.14
2019-03-25T21:59:40.559Z,101300.41
2019-03-25T23:02:56.345Z,101377.72
2019-03-25T23:05:27.505Z,101392.88
2019-03-25T23:07:58.196Z,101398.41
2019-03-25T23:10:29.173Z,101411.91
2019-03-25T23:13:00.733Z,101415.59
2019-03-25T23:15:32.394Z,101416.76
2019-03-25T23:18:03.763Z,101419.73
2019-03-25T23:20:35.671Z,101420.35
2019-03-25T23:23:06.951Z,101431.25
2019-03-25T23:25:38.232Z,101428.23
2019-03-25T23:28:09.222Z,101437.78
2019-03-25T23:30:40.728Z,101440.08
2019-03-25T23:33:11.616Z,101446.79
2019-03-25T23:35:43.029Z,101446.24
2019-03-25T23:38:14.028Z,101442.59
2019-03-25T23:40:45.226Z,101448.80
2019-03-25T23:43:16.746Z,101455.90
2019-03-25T23:45:47.527Z,101453.55
2019-03-25T23:48:18.447Z,101444.16
2019-03-25T23:50:49.729Z,101450.58
2019-03-25T23:53:22.285Z,101417.13
2019-03-25T23:55:53.704Z,101448.28
2019-03-25T23:58:24.787Z,101419.47
